createdAt,value
2022-11-02T00:01:17.851Z,76.56
2022-11-02T00:03:45.803Z,77.22
2022-11-02T00:06:13.776Z,76.93
2022-11-02T00:08:41.985Z,77.09
2022-11-02T00:11:09.949Z,78.01
2022-11-02T00:13:37.884Z,77.96
2022-11-02T00:16:10.190Z,78.24
2022-11-02T00:18:39.001Z,78.33
2022-11-02T00:21:07.394Z,78.85
2022-11-02T00:23:35.640Z,78.21
2022-11-02T00:26:04.282Z,78.93
2022-11-02T00:28:32.489Z,78.89
2022-11-02T00:31:00.478Z,79.24
2022-11-02T00:33:29.854Z,79.48
2022-11-02T00:35:57.958Z,79.48
2022-11-02T00:38:25.918Z,79.79
2022-11-02T00:40:53.894Z,79.65
2022-11-02T00:43:21.763Z,79.63
2022-11-02T00:45:49.619Z,79.49
2022-11-02T00:48:17.602Z,79.82
2022-11-02T00:50:46.849Z,79.34
2022-11-02T00:53:14.737Z,79.63
2022-11-02T00:55:42.637Z,79.65
2022-11-02T00:58:10.549Z,79.75
2022-11-02T01:00:38.646Z,79.26
2022-11-02T01:03:06.571Z,79.62
2022-11-02T01:05:34.487Z,79.22
2022-11-02T01:08:04.110Z,79.38
2022-11-02T01:10:32.145Z,78.81
2022-11-02T01:13:00.083Z,79.39
2022-11-02T01:15:27.994Z,78.69
2022-11-02T01:17:55.990Z,78.81
2022-11-02T01:20:24.252Z,78.93
2022-11-02T01:22:52.220Z,79.10
2022-11-02T01:25:21.507Z,79.30
2022-11-02T01:27:49.421Z,79.35
2022-11-02T01:30:17.626Z,78.97
2022-11-02T01:32:45.734Z,78.79
2022-11-02T01:35:13.734Z,78.89
2022-11-02T01:37:41.552Z,78.45
2022-11-02T01:40:10.682Z,78.38
2022-11-02T01:42:40.483Z,78.48
2022-11-02T01:45:09.080Z,79.22
2022-11-02T01:47:39.749Z,79.23
2022-11-02T01:50:11.532Z,79.17
2022-11-02T01:52:41.469Z,79.08
2022-11-02T01:55:14.987Z,79.03
2022-11-02T01:57:49.366Z,78.81
2022-11-02T02:00:19.897Z,79.50
2022-11-02T02:02:53.053Z,79.72
2022-11-02T02:05:23.350Z,79.08
2022-11-02T02:07:52.438Z,79.77
2022-11-02T02:10:20.925Z,79.84
2022-11-02T02:12:51.487Z,79.91
2022-11-02T02:15:19.566Z,79.73
2022-11-02T02:17:54.139Z,79.81
2022-11-02T02:20:40.957Z,79.75
2022-11-02T02:23:54.713Z,80.91
2022-11-02T02:26:49.010Z,79.88
2022-11-02T02:29:23.211Z,80.35
2022-11-02T02:31:57.496Z,81.15
2022-11-02T02:34:30.346Z,80.23
2022-11-02T02:37:02.746Z,80.73
2022-11-02T02:39:37.841Z,80.94
2022-11-02T02:42:14.167Z,80.79
2022-11-02T02:44:48.225Z,80.87
2022-11-02T02:47:21.502Z,81.13
2022-11-02T02:49:56.686Z,80.95
2022-11-02T02:52:28.180Z,80.78
2022-11-02T02:55:00.254Z,80.52
2022-11-02T02:57:32.704Z,81.08
2022-11-02T03:00:02.172Z,81.56
2022-11-02T03:02:33.982Z,81.02
2022-11-02T03:05:02.083Z,81.48
2022-11-02T03:07:34.177Z,81.40
2022-11-02T03:10:11.590Z,81.26
2022-11-02T03:12:46.606Z,81.55
2022-11-02T03:15:22.342Z,81.14
2022-11-02T03:18:03.473Z,81.19
2022-11-02T03:20:40.856Z,81.10
2022-11-02T03:23:17.730Z,80.60
2022-11-02T03:25:54.581Z,80.95
2022-11-02T03:28:31.164Z,80.56
2022-11-02T03:31:07.968Z,80.71
2022-11-02T03:33:38.706Z,80.75
2022-11-02T03:36:10.719Z,80.65
2022-11-02T03:38:45.565Z,80.04
2022-11-02T03:41:14.767Z,80.14
2022-11-02T03:43:44.016Z,80.23
2022-11-02T03:46:15.710Z,80.29
2022-11-02T03:48:46.609Z,80.43
2022-11-02T03:51:19.244Z,80.15
2022-11-02T03:53:52.612Z,79.92
2022-11-02T03:56:27.114Z,80.29
2022-11-02T03:58:55.043Z,80.07
2022-11-02T04:01:25.957Z,80.20
2022-11-02T04:03:54.078Z,80.09
2022-11-02T04:06:23.525Z,80.47
2022-11-02T04:08:51.458Z,80.17
2022-11-02T04:11:36.999Z,79.92
2022-11-02T04:14:22.354Z,80.42
2022-11-02T04:17:11.820Z,80.53
2022-11-02T04:19:38.643Z,80.60
2022-11-02T04:22:23.778Z,80.44
2022-11-02T04:25:08.936Z,80.62
2022-11-02T04:27:37.310Z,80.98
2022-11-02T04:30:06.176Z,80.64
2022-11-02T04:32:58.271Z,80.83
2022-11-02T04:35:26.210Z,80.76
2022-11-02T04:38:11.468Z,81.12
2022-11-02T04:40:39.640Z,81.54
2022-11-02T04:43:07.654Z,81.28
2022-11-02T04:45:35.927Z,81.53
2022-11-02T04:48:07.345Z,81.45
2022-11-02T04:50:36.023Z,81.47
2022-11-02T04:53:07.151Z,81.35
2022-11-02T04:55:35.850Z,81.61
2022-11-02T04:58:04.335Z,81.59
2022-11-02T05:00:34.936Z,81.16
2022-11-02T05:03:04.690Z,81.48
2022-11-02T05:05:36.118Z,81.27
2022-11-02T05:08:04.365Z,81.52
2022-11-02T05:10:32.562Z,81.39
2022-11-02T05:13:01.129Z,81.16
2022-11-02T05:15:29.016Z,81.33
2022-11-02T05:17:57.273Z,81.51
2022-11-02T05:20:25.528Z,81.39
2022-11-02T05:22:54.824Z,81.43
2022-11-02T05:25:22.796Z,80.97
2022-11-02T05:27:50.737Z,81.29
2022-11-02T05:30:18.942Z,81.29
2022-11-02T05:32:46.838Z,81.17
2022-11-02T05:35:14.850Z,80.88
2022-11-02T05:37:43.928Z,81.22
2022-11-02T05:40:14.198Z,80.51
2022-11-02T05:42:42.199Z,80.92
2022-11-02T05:45:10.945Z,81.01
2022-11-02T05:47:38.874Z,80.80
2022-11-02T05:50:07.353Z,80.77
2022-11-02T05:52:36.387Z,80.31
2022-11-02T05:55:04.678Z,80.55
2022-11-02T05:57:33.949Z,80.04
2022-11-02T06:00:01.886Z,80.56
2022-11-02T06:02:29.764Z,80.16
2022-11-02T06:04:58.348Z,80.32
2022-11-02T06:07:26.388Z,79.85
2022-11-02T06:09:54.238Z,80.06
2022-11-02T06:12:22.292Z,80.26
2022-11-02T06:14:51.625Z,80.11
2022-11-02T06:17:19.426Z,79.96
2022-11-02T06:19:47.443Z,80.00
2022-11-02T06:22:15.461Z,79.84
2022-11-02T06:24:43.399Z,80.44
2022-11-02T06:27:11.298Z,80.16
2022-11-02T06:29:39.231Z,80.29
2022-11-02T06:32:08.628Z,80.43
2022-11-02T06:34:36.676Z,79.97
2022-11-02T06:37:04.642Z,80.57
2022-11-02T06:39:32.667Z,80.08
2022-11-02T06:42:00.644Z,79.99
2022-11-02T06:44:28.753Z,80.50
2022-11-02T06:46:56.722Z,80.07
2022-11-02T06:49:26.157Z,80.09
2022-11-02T06:51:54.406Z,80.10
2022-11-02T06:54:22.367Z,80.15
2022-11-02T06:56:50.370Z,80.59
2022-11-02T06:59:18.302Z,80.25
2022-11-02T07:01:46.599Z,80.92
2022-11-02T07:04:14.772Z,80.50
2022-11-02T07:06:44.070Z,80.36
2022-11-02T07:09:11.932Z,80.06
2022-11-02T07:11:39.758Z,80.60
2022-11-02T07:14:07.830Z,79.95
2022-11-02T07:16:35.713Z,80.29
2022-11-02T07:19:04.366Z,80.10
2022-11-02T07:21:32.333Z,80.26
2022-11-02T07:24:01.670Z,80.13
2022-11-02T07:26:29.759Z,79.95
2022-11-02T07:28:59.429Z,80.15
2022-11-02T07:31:27.487Z,79.94
2022-11-02T07:33:55.495Z,80.17
2022-11-02T07:36:23.297Z,80.01
2022-11-02T07:38:52.607Z,80.06
2022-11-02T07:41:23.311Z,79.79
2022-11-02T07:43:51.550Z,79.85
2022-11-02T07:46:19.715Z,79.31
2022-11-02T07:48:48.667Z,79.20
2022-11-02T07:51:17.055Z,78.77
2022-11-02T07:53:45.055Z,78.83
2022-11-02T07:56:13.122Z,79.10
2022-11-02T07:58:42.505Z,78.74
2022-11-02T08:01:10.377Z,78.64
2022-11-02T08:03:38.441Z,78.93
2022-11-02T08:06:07.199Z,78.61
2022-11-02T08:08:35.194Z,78.36
2022-11-02T08:11:08.428Z,78.34
2022-11-02T08:13:37.820Z,78.75
2022-11-02T08:16:07.723Z,78.87
2022-11-02T08:18:35.694Z,78.44
2022-11-02T08:21:04.339Z,78.03
2022-11-02T08:23:32.186Z,78.13
2022-11-02T08:26:01.212Z,78.52
2022-11-02T08:28:31.688Z,77.80
2022-11-02T08:30:59.897Z,78.16
2022-11-02T08:33:29.563Z,77.66
2022-11-02T08:36:08.314Z,76.98
2022-11-02T08:38:36.249Z,77.12
2022-11-02T08:41:04.595Z,77.65
2022-11-02T08:43:32.854Z,77.16
2022-11-02T08:46:14.744Z,76.55
2022-11-02T08:48:45.365Z,76.63
2022-11-02T08:51:13.429Z,76.40
2022-11-02T08:53:42.361Z,76.83
2022-11-02T08:56:11.659Z,76.78
2022-11-02T08:58:39.630Z,76.99
2022-11-02T09:01:07.609Z,76.72
2022-11-02T09:03:35.591Z,76.71
2022-11-02T09:06:05.335Z,76.45
2022-11-02T09:08:33.414Z,76.68
2022-11-02T09:11:02.803Z,77.21
2022-11-02T09:13:31.027Z,77.48
2022-11-02T09:16:00.545Z,76.46
2022-11-02T09:18:28.936Z,77.00
2022-11-02T09:20:57.165Z,76.94
2022-11-02T09:23:26.485Z,76.36
2022-11-02T09:25:54.773Z,77.03
2022-11-02T09:28:22.900Z,77.12
2022-11-02T09:30:50.991Z,77.20
2022-11-02T09:33:19.320Z,76.99
2022-11-02T09:35:49.361Z,76.95
2022-11-02T09:38:19.355Z,77.00
2022-11-02T09:40:56.034Z,75.89
2022-11-02T09:43:33.102Z,76.06
2022-11-02T09:46:06.230Z,75.76
2022-11-02T09:48:37.512Z,75.32
2022-11-02T09:51:09.988Z,75.59
2022-11-02T09:53:49.919Z,75.26
2022-11-02T09:56:21.185Z,75.39
2022-11-02T09:58:52.588Z,73.63
2022-11-02T10:01:46.424Z,74.05
2022-11-02T10:04:31.139Z,73.71
2022-11-02T10:07:08.119Z,74.02
2022-11-02T10:09:46.909Z,73.79
2022-11-02T10:12:21.460Z,75.02
2022-11-02T10:14:58.272Z,73.79
2022-11-02T10:17:28.399Z,73.02
2022-11-02T10:19:58.617Z,73.10
2022-11-02T10:22:30.031Z,72.42
2022-11-02T10:24:59.604Z,72.51
2022-11-02T10:27:33.339Z,72.30
2022-11-02T10:30:04.934Z,71.64
2022-11-02T10:32:34.236Z,72.11
2022-11-02T10:35:25.382Z,70.92
2022-11-02T10:38:13.514Z,69.46
2022-11-02T10:40:56.992Z,69.20
2022-11-02T10:43:52.146Z,69.70
2022-11-02T10:46:36.058Z,68.01
2022-11-02T10:49:12.330Z,68.78
2022-11-02T10:51:40.445Z,69.01
2022-11-02T10:54:15.085Z,68.27
2022-11-02T10:56:47.133Z,67.26
2022-11-02T10:59:17.668Z,66.77
2022-11-02T11:02:04.312Z,65.77
2022-11-02T11:04:33.518Z,66.12
2022-11-02T11:07:06.546Z,64.70
2022-11-02T11:09:42.895Z,65.73
2022-11-02T11:12:22.476Z,64.41
2022-11-02T11:20:36.694Z,63.84
2022-11-02T11:23:20.770Z,64.57
2022-11-02T11:25:56.733Z,63.15
2022-11-02T11:28:27.548Z,63.97
2022-11-02T11:31:15.463Z,63.60
2022-11-02T11:33:49.571Z,63.50
2022-11-02T11:36:28.221Z,63.20
2022-11-02T11:38:59.362Z,63.37
2022-11-02T11:41:27.775Z,64.05
2022-11-02T11:43:56.235Z,64.53
2022-11-02T11:46:40.492Z,62.48
2022-11-02T11:49:35.852Z,61.46
2022-11-02T11:52:18.681Z,63.22
2022-11-02T11:54:55.351Z,62.83
2022-11-02T11:57:28.375Z,63.34
2022-11-02T11:59:59.176Z,63.07
2022-11-02T12:02:30.250Z,63.25
2022-11-02T12:05:15.125Z,62.90
2022-11-02T12:08:02.655Z,61.96
2022-11-02T12:10:48.842Z,60.98
2022-11-02T12:13:32.046Z,61.62
2022-11-02T12:16:16.372Z,61.40
2022-11-02T12:19:14.296Z,61.84
2022-11-02T12:21:56.500Z,61.80
2022-11-02T12:24:56.227Z,63.13
2022-11-02T12:27:34.574Z,62.55
2022-11-02T12:30:15.079Z,62.50
2022-11-02T12:33:07.954Z,62.73
2022-11-02T12:36:01.814Z,62.68
2022-11-02T12:39:10.384Z,62.66
2022-11-02T12:45:00.556Z,62.66
2022-11-02T12:47:43.340Z,62.39
2022-11-02T12:50:38.088Z,61.99
2022-11-02T12:53:20.250Z,62.78
2022-11-02T12:55:53.756Z,63.37
2022-11-02T12:58:24.556Z,63.43
2022-11-02T13:00:58.515Z,63.88
2022-11-02T13:03:36.621Z,63.45
2022-11-02T13:06:10.931Z,63.07
2022-11-02T13:08:46.755Z,62.88
2022-11-02T13:11:21.089Z,63.10
2022-11-02T13:13:53.735Z,63.24
2022-11-02T13:16:29.409Z,61.97
2022-11-02T13:18:59.675Z,63.19
2022-11-02T13:21:36.515Z,63.19
2022-11-02T13:24:14.546Z,62.85
2022-11-02T13:26:45.350Z,63.12
2022-11-02T13:29:19.418Z,63.36
2022-11-02T13:31:51.779Z,62.94
2022-11-02T13:34:29.630Z,63.71
2022-11-02T13:36:57.746Z,63.76
2022-11-02T13:39:33.071Z,64.21
2022-11-02T13:42:18.814Z,64.14
2022-11-02T13:45:15.607Z,64.07
2022-11-02T13:48:15.550Z,64.86
2022-11-02T13:50:48.093Z,64.69
2022-11-02T13:53:20.963Z,65.07
2022-11-02T13:55:54.466Z,65.23
2022-11-02T13:58:27.394Z,65.39
2022-11-02T14:00:59.984Z,65.73
2022-11-02T14:03:32.830Z,66.30
2022-11-02T14:06:02.947Z,65.87
2022-11-02T14:08:37.133Z,65.63
2022-11-02T14:11:24.475Z,66.23
2022-11-02T14:14:28.131Z,65.71
2022-11-02T14:17:17.323Z,66.31
2022-11-02T14:19:56.497Z,66.59
2022-11-02T14:22:24.646Z,66.86
2022-11-02T14:25:08.475Z,66.36
2022-11-02T14:27:36.898Z,66.28
2022-11-02T14:30:27.013Z,66.40
2022-11-02T14:33:03.268Z,66.58
2022-11-02T14:35:41.197Z,66.43
2022-11-02T14:38:47.348Z,66.51
2022-11-02T14:41:36.782Z,66.18
2022-11-02T14:44:38.306Z,65.64
2022-11-02T14:47:10.298Z,66.85
2022-11-02T14:49:41.544Z,66.73
2022-11-02T14:52:23.971Z,66.37
2022-11-02T14:54:54.768Z,65.22
2022-11-02T14:57:26.049Z,65.80
2022-11-02T14:59:57.500Z,65.54
2022-11-02T15:02:31.302Z,66.17
2022-11-02T15:05:01.650Z,66.38
2022-11-02T15:07:35.983Z,66.03
2022-11-02T15:10:08.492Z,66.16
2022-11-02T15:12:38.966Z,66.46
2022-11-02T15:15:34.773Z,65.93
2022-11-02T15:18:24.007Z,66.41
2022-11-02T15:21:25.372Z,66.02
2022-11-02T15:24:02.957Z,66.04
2022-11-02T15:26:39.221Z,66.96
2022-11-02T15:29:17.747Z,67.21
2022-11-02T15:31:56.721Z,66.19
2022-11-02T15:34:35.174Z,66.75
2022-11-02T15:37:03.528Z,66.25
2022-11-02T15:39:32.372Z,66.60
2022-11-02T15:42:05.325Z,66.53
2022-11-02T15:45:14.295Z,66.63
2022-11-02T15:48:04.520Z,66.69
2022-11-02T15:50:46.075Z,66.90
2022-11-02T15:53:42.879Z,67.39
2022-11-02T15:56:26.579Z,67.00
2022-11-02T15:59:18.093Z,67.49
2022-11-02T16:01:46.176Z,67.94
2022-11-02T16:04:21.384Z,67.52
2022-11-02T16:06:50.946Z,67.92
2022-11-02T16:09:33.108Z,67.93
2022-11-02T16:12:12.261Z,67.90
2022-11-02T16:14:40.548Z,68.48
2022-11-02T16:17:20.401Z,68.15
2022-11-02T16:19:49.602Z,68.47
2022-11-02T16:22:26.255Z,68.55
2022-11-02T16:24:55.459Z,68.59
2022-11-02T16:27:24.255Z,68.83
2022-11-02T16:29:52.312Z,68.65
2022-11-02T16:32:20.390Z,68.72
2022-11-02T16:34:48.658Z,68.89
2022-11-02T16:37:19.373Z,69.17
2022-11-02T16:39:48.993Z,69.07
2022-11-02T16:42:20.243Z,69.23
2022-11-02T16:44:57.801Z,69.84
2022-11-02T16:47:38.971Z,69.03
2022-11-02T16:50:20.810Z,69.96
2022-11-02T16:52:56.067Z,69.83
2022-11-02T16:55:44.221Z,70.08
2022-11-02T16:58:19.301Z,69.26
2022-11-02T17:00:56.369Z,69.83
2022-11-02T17:03:27.286Z,70.04
2022-11-02T17:05:55.623Z,70.04
2022-11-02T17:08:32.045Z,70.44
2022-11-02T17:11:03.635Z,70.26
2022-11-02T17:13:34.225Z,69.87
2022-11-02T17:16:07.099Z,69.91
2022-11-02T17:18:35.018Z,69.99
2022-11-02T17:21:27.962Z,70.82
2022-11-02T17:23:57.332Z,70.45
2022-11-02T17:26:37.526Z,70.48
2022-11-02T17:29:32.253Z,70.78
2022-11-02T17:32:01.660Z,70.99
2022-11-02T17:34:31.674Z,70.66
2022-11-02T17:36:59.861Z,70.67
2022-11-02T17:39:27.913Z,70.45
2022-11-02T17:42:24.771Z,70.54
2022-11-02T17:44:52.750Z,70.30
2022-11-02T17:47:20.734Z,70.89
2022-11-02T17:49:48.830Z,71.10
2022-11-02T17:52:17.503Z,70.75
2022-11-02T17:54:45.504Z,70.53
2022-11-02T17:57:16.201Z,70.62
2022-11-02T17:59:44.294Z,70.09
2022-11-02T18:02:13.759Z,70.31
2022-11-02T18:07:09.896Z,70.68
2022-11-02T18:09:37.876Z,70.55
2022-11-02T18:12:06.117Z,70.14
2022-11-02T18:14:36.723Z,70.08
2022-11-02T18:17:04.770Z,69.97
2022-11-02T18:19:33.444Z,70.68
2022-11-02T18:22:01.621Z,69.95
2022-11-02T18:24:29.608Z,69.95
2022-11-02T18:26:57.509Z,69.92
2022-11-02T18:29:25.550Z,70.05
2022-11-02T18:31:55.103Z,70.11
2022-11-02T18:34:23.235Z,69.93
2022-11-02T18:36:51.243Z,70.27
2022-11-02T18:39:19.468Z,70.42
2022-11-02T18:41:47.921Z,69.90
2022-11-02T18:44:15.970Z,70.03
2022-11-02T18:46:44.236Z,70.02
2022-11-02T18:49:14.620Z,70.51
2022-11-02T18:51:43.735Z,69.87
2022-11-02T18:54:12.098Z,69.99
2022-11-02T18:56:40.081Z,70.03
2022-11-02T18:59:08.120Z,69.78
2022-11-02T19:01:36.239Z,69.87
2022-11-02T19:04:04.908Z,69.93
2022-11-02T19:06:52.970Z,70.20
2022-11-02T19:09:23.825Z,70.09
2022-11-02T19:11:56.917Z,70.47
2022-11-02T19:14:25.467Z,70.72
2022-11-02T19:16:53.444Z,70.19
2022-11-02T19:19:21.380Z,70.85
2022-11-02T19:21:50.818Z,70.49
2022-11-02T19:24:20.984Z,70.67
2022-11-02T19:26:49.380Z,70.71
2022-11-02T19:29:17.809Z,70.76
2022-11-02T19:31:47.904Z,70.89
2022-11-02T19:34:15.967Z,71.09
2022-11-02T19:36:44.119Z,71.05
2022-11-02T19:39:13.565Z,70.74
2022-11-02T19:41:41.583Z,71.02
2022-11-02T19:44:09.597Z,71.04
2022-11-02T19:46:37.631Z,71.05
2022-11-02T19:49:05.623Z,71.34
2022-11-02T19:51:33.706Z,71.24
2022-11-02T19:54:03.811Z,71.32
2022-11-02T19:56:35.087Z,71.22
2022-11-02T19:59:03.979Z,71.13
2022-11-02T20:01:34.180Z,71.13
2022-11-02T20:04:02.501Z,71.31
2022-11-02T20:06:34.161Z,71.14
2022-11-02T20:09:04.424Z,71.03
2022-11-02T20:11:36.053Z,70.84
2022-11-02T20:14:05.301Z,70.75
2022-11-02T20:16:33.377Z,71.01
2022-11-02T20:19:01.372Z,70.69
2022-11-02T20:21:34.578Z,71.12
2022-11-02T20:24:05.582Z,70.96
2022-11-02T20:26:37.432Z,70.89
2022-11-02T20:29:07.026Z,71.08
2022-11-02T20:31:37.770Z,70.89
2022-11-02T20:34:08.181Z,70.95
2022-11-02T20:36:36.293Z,71.39
2022-11-02T20:39:07.506Z,71.29
2022-11-02T20:41:37.512Z,70.95
2022-11-02T20:44:05.923Z,71.17
2022-11-02T20:46:39.657Z,71.54
2022-11-02T20:49:20.444Z,71.48
2022-11-02T20:51:49.609Z,71.69
2022-11-02T20:54:19.838Z,72.43
2022-11-02T20:56:49.925Z,72.07
2022-11-02T20:59:18.565Z,72.51
2022-11-02T21:01:47.386Z,72.31
2022-11-02T21:04:20.326Z,72.62
2022-11-02T21:06:49.721Z,73.06
2022-11-02T21:09:17.682Z,72.64
2022-11-02T21:12:03.280Z,73.17
2022-11-02T21:14:32.623Z,72.82
2022-11-02T21:17:02.079Z,73.12
2022-11-02T21:19:30.167Z,73.13
2022-11-02T21:22:00.025Z,72.85
2022-11-02T21:24:28.577Z,73.22
2022-11-02T21:26:56.777Z,73.10
2022-11-02T21:29:25.158Z,73.11
2022-11-02T21:31:54.441Z,73.05
2022-11-02T21:34:22.314Z,73.14
2022-11-02T21:36:50.215Z,73.26
2022-11-02T21:39:18.197Z,73.48
2022-11-02T21:41:46.096Z,73.51
2022-11-02T21:44:14.092Z,73.38
2022-11-02T21:46:42.125Z,73.49
2022-11-02T21:49:12.924Z,74.00
2022-11-02T21:51:40.785Z,73.68
2022-11-02T21:54:08.837Z,74.12
2022-11-02T21:56:37.080Z,74.07
2022-11-02T21:59:05.880Z,73.71
2022-11-02T22:01:47.099Z,73.92
2022-11-02T22:04:21.372Z,73.86
2022-11-02T22:06:49.376Z,73.81
2022-11-02T22:09:17.349Z,73.99
2022-11-02T22:11:45.484Z,74.34
2022-11-02T22:14:13.905Z,74.31
2022-11-02T22:16:43.422Z,74.21
2022-11-02T22:19:13.150Z,74.24
2022-11-02T22:21:44.988Z,74.46
2022-11-02T22:24:13.485Z,74.03
2022-11-02T22:26:41.965Z,74.05
2022-11-02T22:29:09.998Z,74.04
2022-11-02T22:31:39.622Z,73.79
2022-11-02T22:34:09.225Z,74.14
2022-11-02T22:36:38.550Z,73.88
2022-11-02T22:39:08.559Z,74.05
2022-11-02T22:41:37.870Z,74.05
2022-11-02T22:44:07.672Z,74.09
2022-11-02T22:46:37.805Z,73.98
2022-11-02T22:49:06.820Z,74.25
2022-11-02T22:51:36.899Z,73.89
2022-11-02T22:54:08.484Z,73.70
2022-11-02T22:56:36.988Z,73.83
2022-11-02T22:59:06.053Z,73.60
2022-11-02T23:01:36.103Z,73.53
2022-11-02T23:04:04.740Z,73.93
2022-11-02T23:06:33.165Z,73.52
2022-11-02T23:09:02.232Z,73.29
2022-11-02T23:11:33.649Z,73.84
2022-11-02T23:14:03.834Z,73.76
2022-11-02T23:16:34.434Z,73.34
2022-11-02T23:19:27.209Z,73.57
2022-11-02T23:22:14.936Z,73.50
2022-11-02T23:25:02.306Z,73.87
2022-11-02T23:27:32.409Z,74.04
2022-11-02T23:30:18.085Z,74.09
2022-11-02T23:32:46.264Z,74.20
2022-11-02T23:35:31.703Z,74.05
2022-11-02T23:38:04.455Z,73.97
2022-11-02T23:40:33.394Z,74.12
2022-11-02T23:43:03.196Z,74.23
2022-11-02T23:45:31.354Z,74.48
2022-11-02T23:48:00.723Z,74.26
2022-11-02T23:50:49.030Z,74.79
2022-11-02T23:53:36.119Z,74.72
2022-11-02T23:56:22.998Z,74.36
2022-11-02T23:59:06.701Z,74.24
